This is the latest recevied weather packets stored in our database for station/object OK2ZAW-23. If no packets are shown the sender has not sent any weather packets the latest 1 day(s).
| Time | Temp. | Humidity | Pressure | Rain* | Wind** | Luminosity | Snow |
|---|---|---|---|---|---|---|---|
| 1778073795 | 25° C | 36% | 1003.2 hPa | - | - | 336 W/m² | - |
| 1778070963 | 23.89° C | 37% | 1003.9 hPa | - | - | 336 W/m² | - |
| 1778070649 | 24.44° C | 37% | 1003.9 hPa | - | - | 336 W/m² | - |
| 1778070334 | 25° C | 37% | 1004.1 hPa | - | - | 336 W/m² | - |
| 1778067816 | 24.44° C | 37% | 1004.2 hPa | - | - | 336 W/m² | - |
| 1778067188 | 24.44° C | 36% | 1004.3 hPa | - | - | 336 W/m² | - |
| 1778064670 | 25° C | 40% | 1004.6 hPa | - | - | 336 W/m² | - |
| 1778063726 | 23.89° C | 43% | 1004.7 hPa | - | - | 336 W/m² | - |
| 1778062782 | 23.33° C | 43% | 1004.8 hPa | - | - | 336 W/m² | - |
| 1778062468 | 23.33° C | 44% | 1004.9 hPa | - | - | 336 W/m² | - |
| 1778061525 | 22.78° C | 46% | 1005.1 hPa | - | - | 336 W/m² | - |
| 1778061210 | 22.22° C | 44% | 1005 hPa | - | - | 336 W/m² | - |
| 1778058695 | 21.11° C | 54% | 1005 hPa | - | - | 336 W/m² | - |
| 1778056182 | 19.44° C | 58% | 1005.2 hPa | - | - | 336 W/m² | - |
| 1778055868 | 19.44° C | 57% | 1005.2 hPa | - | - | 335 W/m² | - |
| 1778055554 | 18.89° C | 56% | 1005.2 hPa | - | - | 336 W/m² | - |
| 1778054298 | 17.78° C | 62% | 1005.2 hPa | - | - | 336 W/m² | - |
| 1778052415 | 16.67° C | 68% | 1005.3 hPa | - | - | 336 W/m² | - |
| 1778051788 | 16.11° C | 71% | 1005.4 hPa | - | - | 336 W/m² | - |
| 1778050847 | 15.56° C | 75% | 1005.5 hPa | - | - | 335 W/m² | - |
| 1778050219 | 15° C | 76% | 1005.3 hPa | - | - | 335 W/m² | - |
| 1778047710 | 13.89° C | 86% | 1005 hPa | - | - | 335 W/m² | - |
| 1778045829 | 12.78° C | 93% | 1005 hPa | - | - | 335 W/m² | - |
| 1778045202 | 12.78° C | 97% | 1004.9 hPa | - | - | 335 W/m² | - |
| 1778044888 | 12.78° C | 99% | 1004.9 hPa | - | - | 335 W/m² | - |
* Rain since midnight (hover to see other rain measurements)
** Current wind speed in m/s (hover to see current wind gust speed)